This is the latest recevied weather packets stored in our database for station/object n3uvr. If no packets are shown the sender has not sent any weather packets the latest 10 day(s).
| Time | Temp. | Humidity | Pressure | Rain* | Wind** | Luminosity | Snow |
|---|---|---|---|---|---|---|---|
| 1788144804 | 20° C | 87% | 1019.8 hPa | 0 mm | - | 0 W/m² | - |
| 1788143640 | 20° C | 87% | 1019.8 hPa | 0 mm | - | 0 W/m² | - |
| 1788142410 | 20° C | 87% | 1019.8 hPa | 0 mm | - | 0 W/m² | - |
| 1788121936 | 25° C | 72% | 1018 hPa | 0 mm | - | 30 W/m² | - |
| 1788121351 | 25° C | 72% | 1018 hPa | 0 mm | - | 28 W/m² | - |
| 1788120135 | 25° C | 72% | 1018.2 hPa | 0 mm | - | 44 W/m² | - |
| 1788118335 | 25° C | 72% | 1018.5 hPa | 0 mm | - | 93 W/m² | - |
| 1788117717 | 25° C | 72% | 1018.6 hPa | 0 mm | - | 79 W/m² | - |
| 1788114688 | 25.56° C | 70% | 1018.9 hPa | 0 mm | - | 60 W/m² | - |
| 1788113508 | 25.56° C | 70% | 1018.9 hPa | 0 mm | - | 84 W/m² | - |
| 1788109888 | 24.44° C | 71% | 1019.4 hPa | 0 mm | - | 97 W/m² | - |
| 1788108680 | 25° C | 70% | 1019.7 hPa | 0 mm | - | 139 W/m² | - |
| 1788108086 | 25° C | 71% | 1019.9 hPa | 0 mm | - | 216 W/m² | - |
| 1788105088 | 22.78° C | 75% | 1020.2 hPa | 0 mm | - | 98 W/m² | - |
| 1788103902 | 22.78° C | 73% | 1020.1 hPa | 0 mm | - | 91 W/m² | - |
| 1788103305 | 22.22° C | 73% | 1020.2 hPa | 0 mm | - | 134 W/m² | - |
| 1788102715 | 21.67° C | 75% | 1020.4 hPa | 0 mm | - | 135 W/m² | - |
| 1788102084 | 20.56° C | 77% | 1020.5 hPa | 0 mm | - | 341 W/m² | - |
| 1788101461 | 20° C | 76% | 1020.6 hPa | 0 mm | - | 84 W/m² | - |
| 1788099664 | 18.89° C | 78% | 1020.8 hPa | 0 mm | - | 67 W/m² | - |
| 1788097258 | 17.22° C | 88% | 1021 hPa | 0 mm | - | 51 W/m² | - |
| 1788096664 | 16.67° C | 88% | 1021 hPa | 0 mm | - | 47 W/m² | - |
| 1788096063 | 16.11° C | 88% | 1021 hPa | 0 mm | - | 56 W/m² | - |
| 1788095460 | 15.56° C | 87% | 1021.2 hPa | 0 mm | - | 54 W/m² | - |
| 1788094838 | 15° C | 86% | 1021.3 hPa | 0 mm | - | 47 W/m² | - |
* Rain latest hour (hover to see other rain measurements)
** Current wind speed in m/s (hover to see current wind gust speed)